Time;durP1;ratioP1;P1;durP2;ratioP2;P2;SDS_P1;SDS_P2;PMS_P1;PMS_P2;Temp;Humidity;BMP_temperature;BMP_pressure;BME280_temperature;BME280_humidity;BME280_pressure;Samples;Min_cycle;Max_cycle;Signal;HPM_P1;HPM_P2
2022/11/28 00:02:17;;;;;;;18.35;12.23;;;;;;;;;;5036913;28;20049;-78
2022/11/28 00:04:43;;;;;;;19.58;13.07;;;;;;;;;;5036905;28;20042;-77
2022/11/28 00:07:10;;;;;;;17.88;13.25;;;;;;;;;;5055009;28;20055;-77
2022/11/28 00:09:36;;;;;;;16.80;11.80;;;;;;;;;;5055185;28;20460;-77
2022/11/28 00:12:02;;;;;;;17.42;12.43;;;;;;;;;;5055510;28;20120;-76
2022/11/28 00:14:28;;;;;;;19.27;12.85;;;;;;;;;;5054551;28;20048;-77
2022/11/28 00:16:54;;;;;;;20.40;13.05;;;;;;;;;;5037400;28;20053;-77
2022/11/28 00:19:20;;;;;;;19.20;12.73;;;;;;;;;;5054052;28;20060;-77
2022/11/28 00:21:46;;;;;;;19.85;14.02;;;;;;;;;;5054674;28;20044;-77
2022/11/28 00:24:12;;;;;;;18.35;13.45;;;;;;;;;;5055368;28;20055;-77
2022/11/28 00:26:40;;;;;;;18.88;13.00;;;;;;;;;;5053858;28;20045;-77
2022/11/28 00:29:07;;;;;;;20.30;13.40;;;;;;;;;;5054818;28;20112;-76
2022/11/28 00:31:34;;;;;;;17.65;12.15;;;;;;;;;;5054366;28;20063;-77
2022/11/28 00:34:01;;;;;;;20.05;13.73;;;;;;;;;;5052173;28;20413;-77
2022/11/28 00:36:27;;;;;;;19.33;13.73;;;;;;;;;;5053800;28;20041;-77
2022/11/28 00:38:53;;;;;;;20.58;13.73;;;;;;;;;;5053127;28;20468;-77
2022/11/28 00:41:21;;;;;;;21.63;14.38;;;;;;;;;;5054964;28;20484;-78
2022/11/28 00:43:48;;;;;;;18.45;13.25;;;;;;;;;;5053018;28;20120;-77
2022/11/28 00:46:14;;;;;;;17.33;12.45;;;;;;;;;;5054686;28;20045;-77
2022/11/28 00:48:40;;;;;;;20.35;13.60;;;;;;;;;;5052252;28;20102;-77
2022/11/28 00:51:08;;;;;;;19.45;13.45;;;;;;;;;;5054000;28;20037;-77
2022/11/28 00:53:34;;;;;;;20.73;13.85;;;;;;;;;;5054571;28;20072;-77
2022/11/28 00:56:00;;;;;;;20.23;13.57;;;;;;;;;;5053331;28;20048;-77
2022/11/28 00:58:26;;;;;;;18.08;12.75;;;;;;;;;;5054313;28;20495;-77
2022/11/28 01:00:52;;;;;;;19.42;13.75;;;;;;;;;;5053802;28;20045;-77
2022/11/28 01:03:18;;;;;;;19.55;13.15;;;;;;;;;;5053268;28;20044;-77
2022/11/28 01:05:44;;;;;;;19.70;13.70;;;;;;;;;;5052224;28;20056;-76
2022/11/28 01:08:10;;;;;;;20.13;13.77;;;;;;;;;;5054600;28;20044;-76
2022/11/28 01:10:41;;;;;;;23.23;13.93;;;;;;;;;;5052825;28;20128;-77
2022/11/28 01:13:07;;;;;;;24.90;14.18;;;;;;;;;;5052997;28;20395;-76
2022/11/28 01:15:33;;;;;;;22.02;14.90;;;;;;;;;;5014727;28;1103427;-76
2022/11/28 01:18:01;;;;;;;18.63;13.18;;;;;;;;;;5055344;28;20049;-77
2022/11/28 01:20:27;;;;;;;20.50;14.05;;;;;;;;;;5054359;28;20483;-77
2022/11/28 01:22:53;;;;;;;23.35;14.18;;;;;;;;;;5054219;28;20041;-76
2022/11/28 01:25:19;;;;;;;19.98;13.75;;;;;;;;;;5054164;28;20551;-76
2022/11/28 01:27:45;;;;;;;18.55;13.32;;;;;;;;;;5053931;28;20052;-76
2022/11/28 01:30:11;;;;;;;21.23;14.07;;;;;;;;;;5054869;28;20037;-76
2022/11/28 01:32:37;;;;;;;20.38;13.77;;;;;;;;;;5055080;28;20475;-76
2022/11/28 01:35:03;;;;;;;21.95;13.27;;;;;;;;;;5054404;28;20375;-76
2022/11/28 01:37:29;;;;;;;19.92;14.05;;;;;;;;;;5053428;28;20048;-76
2022/11/28 01:39:55;;;;;;;21.90;13.85;;;;;;;;;;5054830;28;20132;-76
2022/11/28 01:42:22;;;;;;;20.15;13.70;;;;;;;;;;5050007;28;20124;-76
2022/11/28 01:44:48;;;;;;;18.83;14.13;;;;;;;;;;5053196;28;20112;-76
2022/11/28 01:47:17;;;;;;;19.98;13.80;;;;;;;;;;5047660;28;20075;-76
2022/11/28 01:49:44;;;;;;;23.20;14.75;;;;;;;;;;5054590;28;20048;-76
2022/11/28 01:52:12;;;;;;;22.77;14.80;;;;;;;;;;5054112;28;20490;-76
2022/11/28 01:54:41;;;;;;;28.45;19.70;;;;;;;;;;5035426;28;20804;-76
2022/11/28 01:57:08;;;;;;;22.23;15.20;;;;;;;;;;5037999;28;20053;-76
2022/11/28 01:59:41;;;;;;;20.92;14.10;;;;;;;;;;5052471;28;20041;-76
2022/11/28 02:02:09;;;;;;;22.08;14.23;;;;;;;;;;5053268;28;20041;-76
2022/11/28 02:04:35;;;;;;;21.48;14.85;;;;;;;;;;5052582;28;20056;-76
2022/11/28 02:07:02;;;;;;;23.70;14.35;;;;;;;;;;5053394;28;20045;-78
2022/11/28 02:09:28;;;;;;;19.17;13.63;;;;;;;;;;5053294;28;20041;-76
2022/11/28 02:12:13;;;;;;;21.08;12.93;;;;;;;;;;5059185;28;20063;-76
2022/11/28 02:14:45;;;;;;;22.13;14.60;;;;;;;;;;5059680;28;20435;-76
2022/11/28 02:17:20;;;;;;;23.27;14.68;;;;;;;;;;5054766;28;20048;-76
2022/11/28 02:20:05;;;;;;;24.38;15.25;;;;;;;;;;5054485;28;20040;-76
2022/11/28 02:22:31;;;;;;;20.80;14.18;;;;;;;;;;5036739;28;20072;-76
2022/11/28 02:25:00;;;;;;;23.60;14.93;;;;;;;;;;5048833;28;20045;-76
2022/11/28 02:27:53;;;;;;;21.00;14.15;;;;;;;;;;5054278;28;20143;-76
2022/11/28 02:30:21;;;;;;;20.95;14.57;;;;;;;;;;5050358;28;20427;-76
2022/11/28 02:33:19;;;;;;;24.98;16.40;;;;;;;;;;5033741;28;20042;-76
2022/11/28 02:35:45;;;;;;;21.55;14.95;;;;;;;;;;4984329;28;20054;-76
2022/11/28 02:38:30;;;;;;;23.58;15.65;;;;;;;;;;5011806;28;20038;-76
2022/11/28 02:41:31;;;;;;;23.65;15.38;;;;;;;;;;4985916;28;20046;-76
2022/11/28 02:44:03;;;;;;;22.55;15.18;;;;;;;;;;4971906;28;20425;-76
2022/11/28 02:46:37;;;;;;;26.25;16.30;;;;;;;;;;4972240;28;20090;-76
2022/11/28 02:49:03;;;;;;;22.42;15.57;;;;;;;;;;4972778;28;20055;-76
2022/11/28 02:51:43;;;;;;;26.27;16.15;;;;;;;;;;4955928;28;20073;-76
2022/11/28 02:54:10;;;;;;;22.30;14.25;;;;;;;;;;4953399;28;20596;-76
2022/11/28 02:56:37;;;;;;;24.67;15.65;;;;;;;;;;4953936;28;20062;-76
2022/11/28 02:59:03;;;;;;;22.88;15.95;;;;;;;;;;4956443;28;20051;-76
2022/11/28 03:01:31;;;;;;;22.55;15.15;;;;;;;;;;4972387;28;20386;-76
2022/11/28 03:04:02;;;;;;;23.88;15.63;;;;;;;;;;4972080;28;20096;-76
2022/11/28 03:06:35;;;;;;;22.10;15.52;;;;;;;;;;4954976;28;20042;-76
2022/11/28 03:09:11;;;;;;;25.55;15.18;;;;;;;;;;4971523;28;20038;-76
2022/11/28 03:11:42;;;;;;;25.08;15.60;;;;;;;;;;4955998;28;20047;-75
2022/11/28 03:14:16;;;;;;;24.17;15.63;;;;;;;;;;4991616;28;20104;-76
2022/11/28 03:16:56;;;;;;;22.15;15.57;;;;;;;;;;4973710;28;20162;-76
2022/11/28 03:19:27;;;;;;;24.85;16.50;;;;;;;;;;5053445;28;20178;-76
2022/11/28 03:22:19;;;;;;;24.20;15.95;;;;;;;;;;5051676;28;20056;-76
2022/11/28 03:24:52;;;;;;;25.83;17.55;;;;;;;;;;5051551;28;20057;-76
2022/11/28 03:27:24;;;;;;;23.70;15.73;;;;;;;;;;5052906;28;20072;-76
2022/11/28 03:29:52;;;;;;;24.98;17.13;;;;;;;;;;5052813;28;20502;-76
2022/11/28 03:32:26;;;;;;;25.25;16.45;;;;;;;;;;5053069;28;20048;-76
2022/11/28 03:34:55;;;;;;;24.92;16.63;;;;;;;;;;5052801;28;20348;-76
2022/11/28 03:37:29;;;;;;;25.20;17.20;;;;;;;;;;5034583;28;20060;-76
2022/11/28 03:39:59;;;;;;;25.90;17.90;;;;;;;;;;5050437;28;20163;-76
2022/11/28 03:42:28;;;;;;;24.77;17.02;;;;;;;;;;5047934;28;20045;-76
2022/11/28 03:45:09;;;;;;;26.80;17.60;;;;;;;;;;5044979;28;20049;-76
2022/11/28 03:47:38;;;;;;;26.23;17.05;;;;;;;;;;5052326;28;20399;-76
2022/11/28 03:50:06;;;;;;;30.77;18.58;;;;;;;;;;5049471;28;20061;-76
2022/11/28 03:52:33;;;;;;;26.85;17.88;;;;;;;;;;5053301;28;20055;-76
2022/11/28 03:55:20;;;;;;;25.17;17.33;;;;;;;;;;5035512;28;20367;-76
2022/11/28 03:57:50;;;;;;;24.35;17.27;;;;;;;;;;5052990;28;20044;-76
2022/11/28 04:00:17;;;;;;;28.55;18.48;;;;;;;;;;5051528;28;20053;-76
2022/11/28 04:02:49;;;;;;;27.77;18.27;;;;;;;;;;5052742;28;20569;-76
2022/11/28 04:05:50;;;;;;;28.08;18.00;;;;;;;;;;5051674;28;20037;-76
2022/11/28 04:08:18;;;;;;;27.00;17.98;;;;;;;;;;5014182;28;20042;-76
2022/11/28 04:10:49;;;;;;;24.88;17.95;;;;;;;;;;5013842;28;20058;-76
2022/11/28 04:13:15;;;;;;;26.80;18.27;;;;;;;;;;5000283;28;20050;-76
2022/11/28 04:15:43;;;;;;;25.77;17.52;;;;;;;;;;5006218;28;20443;-76
2022/11/28 04:18:24;;;;;;;29.17;18.63;;;;;;;;;;5014031;28;20046;-76
2022/11/28 04:20:54;;;;;;;24.90;17.35;;;;;;;;;;5013269;28;20077;-76
2022/11/28 04:23:21;;;;;;;28.85;18.52;;;;;;;;;;5013694;28;20061;-76
2022/11/28 04:25:55;;;;;;;23.90;16.67;;;;;;;;;;5013655;28;20046;-76
2022/11/28 04:28:24;;;;;;;27.20;18.00;;;;;;;;;;5014384;28;20049;-76
2022/11/28 04:30:51;;;;;;;27.67;17.10;;;;;;;;;;5013115;28;20150;-76
2022/11/28 04:33:18;;;;;;;25.77;17.27;;;;;;;;;;5013910;28;20046;-76
2022/11/28 04:35:48;;;;;;;27.75;17.77;;;;;;;;;;5013433;28;20065;-76
2022/11/28 04:38:14;;;;;;;25.02;16.70;;;;;;;;;;5013885;28;20042;-76
2022/11/28 04:40:52;;;;;;;23.20;15.52;;;;;;;;;;5012547;28;20049;-76
2022/11/28 04:43:26;;;;;;;27.10;16.58;;;;;;;;;;5034724;28;20392;-76
2022/11/28 04:45:55;;;;;;;27.27;16.85;;;;;;;;;;5048188;28;20124;-76
2022/11/28 04:48:21;;;;;;;25.48;16.92;;;;;;;;;;5049414;28;20046;-76
2022/11/28 04:50:58;;;;;;;25.20;16.25;;;;;;;;;;5052565;28;20041;-76
2022/11/28 04:53:42;;;;;;;24.92;15.85;;;;;;;;;;5046827;28;20045;-76
2022/11/28 04:56:12;;;;;;;25.45;16.27;;;;;;;;;;5054741;28;20037;-76
2022/11/28 04:58:40;;;;;;;21.52;15.02;;;;;;;;;;5054715;28;20040;-76
2022/11/28 05:01:09;;;;;;;24.67;15.70;;;;;;;;;;5055422;28;20317;-76
2022/11/28 05:03:35;;;;;;;24.48;15.02;;;;;;;;;;5054480;28;20494;-76
2022/11/28 05:06:01;;;;;;;22.10;14.43;;;;;;;;;;5051665;28;20383;-76
2022/11/28 05:08:27;;;;;;;21.60;14.68;;;;;;;;;;5046277;28;20033;-76
2022/11/28 05:10:53;;;;;;;21.25;14.38;;;;;;;;;;5048688;28;20383;-76
2022/11/28 05:13:19;;;;;;;23.73;15.30;;;;;;;;;;5053576;28;20545;-76
2022/11/28 05:15:45;;;;;;;23.35;14.45;;;;;;;;;;5053963;28;20057;-76
2022/11/28 05:18:11;;;;;;;22.42;14.82;;;;;;;;;;5053000;28;20069;-76
2022/11/28 05:20:39;;;;;;;20.25;14.07;;;;;;;;;;5053859;28;20110;-76
2022/11/28 05:23:05;;;;;;;20.48;13.38;;;;;;;;;;5057184;28;20402;-76
2022/11/28 05:25:31;;;;;;;18.67;13.55;;;;;;;;;;5057233;28;20075;-76
2022/11/28 05:27:57;;;;;;;20.23;14.13;;;;;;;;;;5058151;28;20045;-76
2022/11/28 05:30:23;;;;;;;21.67;13.70;;;;;;;;;;5054464;28;20114;-76
2022/11/28 05:32:49;;;;;;;22.67;14.23;;;;;;;;;;5041688;28;20442;-76
2022/11/28 05:35:15;;;;;;;23.42;14.02;;;;;;;;;;5043391;28;20048;-76
2022/11/28 05:37:41;;;;;;;20.95;13.95;;;;;;;;;;5054703;28;20143;-76
2022/11/28 05:40:08;;;;;;;23.17;14.45;;;;;;;;;;5054938;28;20187;-76
2022/11/28 05:42:35;;;;;;;20.10;13.52;;;;;;;;;;5054789;28;20411;-76
2022/11/28 05:45:01;;;;;;;21.02;14.18;;;;;;;;;;5054346;28;20041;-76
2022/11/28 05:47:29;;;;;;;20.55;13.63;;;;;;;;;;5054348;28;20049;-76
2022/11/28 05:49:55;;;;;;;21.75;14.18;;;;;;;;;;5049531;28;20033;-76
2022/11/28 05:52:21;;;;;;;18.92;12.85;;;;;;;;;;5049080;28;20502;-76
2022/11/28 05:54:47;;;;;;;21.15;14.13;;;;;;;;;;5050996;28;20495;-76
2022/11/28 05:57:13;;;;;;;20.23;13.75;;;;;;;;;;5052217;28;20088;-76
2022/11/28 05:59:39;;;;;;;19.58;12.80;;;;;;;;;;5037719;28;20053;-76
2022/11/28 06:02:05;;;;;;;19.30;12.32;;;;;;;;;;5054161;28;20036;-76
2022/11/28 06:04:31;;;;;;;19.73;12.48;;;;;;;;;;5053320;28;20056;-76
2022/11/28 06:06:57;;;;;;;19.27;13.02;;;;;;;;;;5053080;28;20045;-76
2022/11/28 06:09:23;;;;;;;20.05;12.68;;;;;;;;;;5053199;28;20037;-76
2022/11/28 06:11:49;;;;;;;19.95;13.07;;;;;;;;;;5049210;28;20095;-76
2022/11/28 06:14:15;;;;;;;19.30;12.98;;;;;;;;;;5034385;28;20045;-76
2022/11/28 06:16:42;;;;;;;18.63;12.63;;;;;;;;;;5038346;28;20126;-76
2022/11/28 06:19:10;;;;;;;19.92;13.15;;;;;;;;;;5044090;28;20055;-76
2022/11/28 06:21:36;;;;;;;20.58;12.73;;;;;;;;;;5051571;28;20091;-76
2022/11/28 06:24:03;;;;;;;17.00;12.27;;;;;;;;;;5052484;28;20041;-76
2022/11/28 06:26:29;;;;;;;18.38;12.05;;;;;;;;;;5050723;28;20053;-76
2022/11/28 06:28:55;;;;;;;19.33;12.48;;;;;;;;;;5044350;28;20375;-76
2022/11/28 06:31:27;;;;;;;16.52;11.68;;;;;;;;;;5052604;28;20040;-76
2022/11/28 06:33:53;;;;;;;17.98;11.90;;;;;;;;;;5045876;28;20041;-76
2022/11/28 06:36:19;;;;;;;17.90;11.50;;;;;;;;;;5051417;28;20053;-76
2022/11/28 06:38:46;;;;;;;16.25;11.07;;;;;;;;;;5054043;28;20036;-76
2022/11/28 06:41:14;;;;;;;16.42;11.18;;;;;;;;;;5051503;28;20041;-76
2022/11/28 06:43:40;;;;;;;18.42;11.25;;;;;;;;;;5051325;28;20049;-76
2022/11/28 06:46:11;;;;;;;16.02;11.65;;;;;;;;;;5034471;28;20080;-76
2022/11/28 06:48:37;;;;;;;17.73;11.20;;;;;;;;;;5052754;28;20045;-76
2022/11/28 06:51:05;;;;;;;15.27;10.25;;;;;;;;;;5048822;28;20491;-76
2022/11/28 06:53:31;;;;;;;16.35;10.52;;;;;;;;;;5048452;28;20132;-76
2022/11/28 06:55:57;;;;;;;14.80;9.90;;;;;;;;;;5051489;28;20434;-76
2022/11/28 06:58:23;;;;;;;15.50;9.98;;;;;;;;;;5052510;28;20040;-76
2022/11/28 07:00:49;;;;;;;15.20;10.40;;;;;;;;;;5053047;28;20503;-76
2022/11/28 07:03:15;;;;;;;15.13;10.27;;;;;;;;;;5053026;28;20041;-76
2022/11/28 07:05:41;;;;;;;15.25;9.80;;;;;;;;;;5049122;28;20047;-76
2022/11/28 07:08:08;;;;;;;15.55;10.20;;;;;;;;;;5052117;28;20041;-76
2022/11/28 07:10:35;;;;;;;15.32;9.93;;;;;;;;;;5051873;28;20060;-77
2022/11/28 07:13:01;;;;;;;13.63;9.32;;;;;;;;;;5051126;28;20060;-77
2022/11/28 07:15:27;;;;;;;14.80;9.82;;;;;;;;;;5052951;28;20053;-76
2022/11/28 07:17:54;;;;;;;13.60;9.60;;;;;;;;;;5053388;28;20390;-76
2022/11/28 07:20:20;;;;;;;13.45;9.65;;;;;;;;;;5051213;28;20402;-76
2022/11/28 07:22:47;;;;;;;13.70;9.40;;;;;;;;;;5053414;28;20052;-76
2022/11/28 07:25:14;;;;;;;13.25;9.30;;;;;;;;;;5052993;28;20033;-76
2022/11/28 07:27:41;;;;;;;12.88;9.32;;;;;;;;;;5033307;28;20505;-76
2022/11/28 07:30:07;;;;;;;12.60;9.15;;;;;;;;;;5041844;28;20082;-76
2022/11/28 07:32:33;;;;;;;12.93;9.02;;;;;;;;;;5053305;28;20041;-76
2022/11/28 07:34:59;;;;;;;15.70;10.32;;;;;;;;;;5043816;28;20048;-76
2022/11/28 07:37:25;;;;;;;13.93;9.95;;;;;;;;;;5052502;28;20041;-76
2022/11/28 07:39:51;;;;;;;16.65;10.23;;;;;;;;;;5051350;28;20075;-76
2022/11/28 07:42:18;;;;;;;16.60;10.05;;;;;;;;;;5053160;28;20095;-76
2022/11/28 07:44:45;;;;;;;14.25;10.13;;;;;;;;;;5052564;28;20098;-77
2022/11/28 07:47:11;;;;;;;15.32;10.30;;;;;;;;;;5057072;28;20519;-76
2022/11/28 07:49:37;;;;;;;18.02;11.55;;;;;;;;;;5056552;28;20077;-76
2022/11/28 07:52:03;;;;;;;16.90;10.98;;;;;;;;;;5051007;28;20123;-77
2022/11/28 07:54:29;;;;;;;15.50;10.82;;;;;;;;;;5045378;28;20179;-76
2022/11/28 07:56:55;;;;;;;18.27;10.90;;;;;;;;;;5052915;28;20104;-76
2022/11/28 07:59:21;;;;;;;16.02;11.65;;;;;;;;;;5053918;28;20409;-77
2022/11/28 08:01:47;;;;;;;16.90;10.88;;;;;;;;;;5039012;28;20052;-77
2022/11/28 08:04:13;;;;;;;17.83;12.02;;;;;;;;;;5057029;28;20045;-77
2022/11/28 08:06:40;;;;;;;15.48;10.50;;;;;;;;;;5059537;28;20136;-78
2022/11/28 08:09:07;;;;;;;17.05;11.48;;;;;;;;;;5059323;28;20041;-78
2022/11/28 08:11:33;;;;;;;17.55;11.85;;;;;;;;;;5058284;28;20548;-78
2022/11/28 08:13:59;;;;;;;16.35;11.30;;;;;;;;;;5059768;28;20044;-77
2022/11/28 08:16:26;;;;;;;15.75;10.35;;;;;;;;;;5056682;28;20053;-77
2022/11/28 08:18:53;;;;;;;14.77;10.25;;;;;;;;;;5056275;28;20053;-77
2022/11/28 08:21:20;;;;;;;17.35;11.10;;;;;;;;;;5057189;28;20513;-77
2022/11/28 08:23:46;;;;;;;15.40;10.57;;;;;;;;;;5058489;28;20399;-78
2022/11/28 08:26:13;;;;;;;16.23;10.40;;;;;;;;;;5058418;28;20514;-78
2022/11/28 08:28:40;;;;;;;15.73;9.77;;;;;;;;;;5055993;28;20053;-77
2022/11/28 08:31:13;;;;;;;17.08;10.20;;;;;;;;;;5058516;28;20044;-77
2022/11/28 08:33:40;;;;;;;15.80;9.90;;;;;;;;;;5060119;28;20052;-77
2022/11/28 08:36:06;;;;;;;15.15;9.95;;;;;;;;;;5058472;28;20048;-77
2022/11/28 08:38:32;;;;;;;13.40;9.43;;;;;;;;;;5059797;28;20124;-78
2022/11/28 08:41:02;;;;;;;13.88;9.55;;;;;;;;;;5060514;28;20037;-79
2022/11/28 08:43:28;;;;;;;15.18;9.45;;;;;;;;;;5056447;28;20037;-78
2022/11/28 08:45:54;;;;;;;14.00;8.68;;;;;;;;;;5041763;28;20492;-78
2022/11/28 08:48:20;;;;;;;13.95;9.02;;;;;;;;;;5035062;28;20059;-78
2022/11/28 08:50:47;;;;;;;13.35;8.38;;;;;;;;;;5040304;28;20076;-77
2022/11/28 08:53:13;;;;;;;17.95;10.07;;;;;;;;;;5038733;28;20041;-77
2022/11/28 08:55:43;;;;;;;15.23;8.77;;;;;;;;;;5036739;28;20084;-78
2022/11/28 08:58:09;;;;;;;15.02;9.55;;;;;;;;;;5053134;28;20045;-78
2022/11/28 09:00:35;;;;;;;12.88;9.02;;;;;;;;;;5049240;28;20063;-77
2022/11/28 09:03:01;;;;;;;15.95;9.90;;;;;;;;;;5054983;28;20041;-77
2022/11/28 09:05:28;;;;;;;17.35;10.77;;;;;;;;;;5058969;28;20048;-77
2022/11/28 09:07:54;;;;;;;16.90;10.40;;;;;;;;;;5051667;28;20040;-77
2022/11/28 09:10:21;;;;;;;17.60;10.35;;;;;;;;;;5052669;28;20048;-77
2022/11/28 09:12:47;;;;;;;18.75;10.25;;;;;;;;;;5055144;28;20056;-77
2022/11/28 09:15:13;;;;;;;18.63;10.90;;;;;;;;;;5051207;28;20042;-77
2022/11/28 09:17:39;;;;;;;21.42;11.82;;;;;;;;;;5048429;28;20121;-77
2022/11/28 09:20:06;;;;;;;18.52;11.20;;;;;;;;;;5036760;28;20077;-77
2022/11/28 09:22:33;;;;;;;20.55;11.52;;;;;;;;;;5050690;28;21157;-77
2022/11/28 09:24:59;;;;;;;22.70;12.25;;;;;;;;;;5046228;28;20550;-77
2022/11/28 09:27:25;;;;;;;22.70;12.02;;;;;;;;;;5054841;28;20084;-77
2022/11/28 09:29:51;;;;;;;26.35;13.52;;;;;;;;;;5056451;28;20072;-77
2022/11/28 09:32:17;;;;;;;25.63;14.32;;;;;;;;;;5056864;28;20045;-77
2022/11/28 09:34:43;;;;;;;29.65;14.10;;;;;;;;;;5056824;28;20094;-77
2022/11/28 09:37:09;;;;;;;29.90;14.63;;;;;;;;;;5056099;28;20099;-77
2022/11/28 09:39:36;;;;;;;32.63;15.55;;;;;;;;;;5044704;28;20045;-77
2022/11/28 09:42:02;;;;;;;30.75;15.88;;;;;;;;;;5054804;28;20091;-77
2022/11/28 09:44:37;;;;;;;39.58;17.15;;;;;;;;;;5055320;28;20130;-78
2022/11/28 09:47:05;;;;;;;32.88;17.13;;;;;;;;;;5026982;28;20121;-78
2022/11/28 09:49:50;;;;;;;36.28;16.73;;;;;;;;;;5052520;28;20499;-78
2022/11/28 09:52:35;;;;;;;30.30;15.85;;;;;;;;;;5042246;28;20045;-78
2022/11/28 09:55:01;;;;;;;34.72;16.90;;;;;;;;;;5036454;28;20464;-78
2022/11/28 09:57:27;;;;;;;38.03;17.95;;;;;;;;;;5054744;28;20045;-78
2022/11/28 09:59:53;;;;;;;44.13;19.10;;;;;;;;;;5054838;28;20048;-77
2022/11/28 10:02:22;;;;;;;40.08;18.85;;;;;;;;;;5053080;28;20040;-76
2022/11/28 10:04:58;;;;;;;36.17;18.17;;;;;;;;;;5039131;28;20049;-77
2022/11/28 10:07:24;;;;;;;45.58;19.95;;;;;;;;;;5045567;28;20117;-77
2022/11/28 10:09:50;;;;;;;47.40;19.73;;;;;;;;;;5050071;28;20045;-77
2022/11/28 10:12:35;;;;;;;42.60;19.85;;;;;;;;;;5069625;28;20048;-77
2022/11/28 10:15:14;;;;;;;43.55;18.95;;;;;;;;;;5038770;28;20045;-78
2022/11/28 10:17:59;;;;;;;42.17;19.98;;;;;;;;;;5040360;28;20049;-77
2022/11/28 10:20:31;;;;;;;39.40;18.63;;;;;;;;;;5052897;28;20049;-78
2022/11/28 10:23:00;;;;;;;36.63;17.90;;;;;;;;;;5054739;28;20037;-77
2022/11/28 10:25:28;;;;;;;39.33;18.70;;;;;;;;;;5049249;28;20130;-77
2022/11/28 10:27:55;;;;;;;40.67;19.33;;;;;;;;;;5045584;28;20071;-77
2022/11/28 10:30:26;;;;;;;42.35;18.63;;;;;;;;;;5054233;28;20053;-78
2022/11/28 10:33:12;;;;;;;52.03;24.83;;;;;;;;;;5055479;28;20052;-79
2022/11/28 10:35:44;;;;;;;39.97;21.95;;;;;;;;;;5043838;28;20056;-82
2022/11/28 10:38:24;;;;;;;41.22;18.83;;;;;;;;;;5046963;28;20084;-78
2022/11/28 10:41:02;;;;;;;40.72;19.50;;;;;;;;;;5041230;28;20059;-77
2022/11/28 10:43:28;;;;;;;40.03;19.98;;;;;;;;;;5053095;28;20124;-78
2022/11/28 10:46:13;;;;;;;38.42;18.63;;;;;;;;;;5053899;28;20147;-76
2022/11/28 10:48:42;;;;;;;35.03;17.98;;;;;;;;;;5051588;28;20032;-76
2022/11/28 10:51:22;;;;;;;40.63;19.38;;;;;;;;;;5053507;28;20041;-77
2022/11/28 10:54:13;;;;;;;40.72;21.33;;;;;;;;;;5053183;28;20037;-75
2022/11/28 10:56:55;;;;;;;39.58;22.23;;;;;;;;;;5052968;28;20047;-79
2022/11/28 10:59:33;;;;;;;33.28;17.60;;;;;;;;;;5057392;28;20102;-78
2022/11/28 11:02:00;;;;;;;34.95;19.02;;;;;;;;;;5057545;28;20478;-80
2022/11/28 11:04:27;;;;;;;38.97;19.55;;;;;;;;;;5056106;28;20056;-79
2022/11/28 11:07:02;;;;;;;35.00;18.15;;;;;;;;;;5045505;28;20038;-80
2022/11/28 11:09:28;;;;;;;31.48;16.63;;;;;;;;;;5039821;28;20049;-80
2022/11/28 11:11:57;;;;;;;32.67;16.45;;;;;;;;;;5044405;28;20048;-79
2022/11/28 11:14:35;;;;;;;28.83;16.73;;;;;;;;;;5059300;28;20052;-79
2022/11/28 11:17:01;;;;;;;29.85;16.50;;;;;;;;;;5042841;28;20081;-79
2022/11/28 11:19:30;;;;;;;33.72;16.92;;;;;;;;;;5057335;28;20102;-79
2022/11/28 11:22:01;;;;;;;29.45;15.95;;;;;;;;;;5061413;28;20099;-79
2022/11/28 11:24:27;;;;;;;24.70;13.77;;;;;;;;;;5059937;28;20045;-79
2022/11/28 11:26:53;;;;;;;23.70;13.30;;;;;;;;;;5056570;28;20076;-79
2022/11/28 11:29:29;;;;;;;23.73;13.75;;;;;;;;;;5040060;28;20037;-79
2022/11/28 11:31:57;;;;;;;27.80;14.43;;;;;;;;;;5039824;28;20091;-77
2022/11/28 11:34:23;;;;;;;29.48;15.00;;;;;;;;;;5048875;28;20055;-78
2022/11/28 11:36:50;;;;;;;26.35;13.73;;;;;;;;;;5059938;28;20076;-78
2022/11/28 11:39:21;;;;;;;26.20;14.65;;;;;;;;;;5059236;28;20127;-78
2022/11/28 11:41:48;;;;;;;28.60;15.38;;;;;;;;;;5058668;28;20128;-78
2022/11/28 11:44:14;;;;;;;28.40;14.50;;;;;;;;;;5058487;28;20391;-78
2022/11/28 11:46:53;;;;;;;29.38;15.52;;;;;;;;;;5058466;28;20494;-79
2022/11/28 11:49:33;;;;;;;28.75;15.10;;;;;;;;;;5038601;28;20046;-79
2022/11/28 11:52:04;;;;;;;36.60;17.50;;;;;;;;;;5056445;28;20487;-79
2022/11/28 11:54:30;;;;;;;59.95;26.80;;;;;;;;;;5059993;28;20103;-78
2022/11/28 11:56:57;;;;;;;56.55;25.25;;;;;;;;;;5064564;28;20045;-77
2022/11/28 11:59:29;;;;;;;101.68;37.95;;;;;;;;;;5066546;28;20403;-79
2022/11/28 12:01:59;;;;;;;53.90;24.55;;;;;;;;;;5061951;28;20055;-80
2022/11/28 12:04:38;;;;;;;61.97;25.67;;;;;;;;;;5065394;28;20041;-79
2022/11/28 12:07:20;;;;;;;45.83;22.95;;;;;;;;;;5047371;28;20045;-80
2022/11/28 12:09:48;;;;;;;42.78;20.23;;;;;;;;;;5060041;28;20155;-80
2022/11/28 12:12:19;;;;;;;49.20;21.90;;;;;;;;;;5065693;28;20056;-80
2022/11/28 12:14:47;;;;;;;47.65;24.20;;;;;;;;;;5064919;28;20049;-80
2022/11/28 12:17:31;;;;;;;48.80;23.48;;;;;;;;;;5066261;28;20095;-80
2022/11/28 12:20:00;;;;;;;37.88;18.60;;;;;;;;;;5050423;28;20129;-80
2022/11/28 12:22:26;;;;;;;42.42;18.67;;;;;;;;;;5062455;28;20055;-81
2022/11/28 12:24:52;;;;;;;72.85;27.55;;;;;;;;;;5060606;28;20120;-80
2022/11/28 12:27:30;;;;;;;71.25;26.33;;;;;;;;;;5055561;28;20048;-80
2022/11/28 12:30:03;;;;;;;56.47;22.30;;;;;;;;;;5047279;28;20052;-80
2022/11/28 12:32:39;;;;;;;46.30;19.27;;;;;;;;;;5049183;28;20053;-79
2022/11/28 12:35:05;;;;;;;;;;;;;;;;;;5055922;28;20089;-79
2022/11/28 12:37:41;;;;;;;52.37;21.00;;;;;;;;;;5050232;28;20162;-79
2022/11/28 12:40:15;;;;;;;65.73;26.83;;;;;;;;;;5063235;28;20056;-79
2022/11/28 12:42:53;;;;;;;45.97;20.02;;;;;;;;;;5041195;28;20048;-80
2022/11/28 12:45:29;;;;;;;55.15;25.35;;;;;;;;;;5043282;28;20119;-79
2022/11/28 12:48:14;;;;;;;60.85;24.50;;;;;;;;;;5051634;28;20072;-80
2022/11/28 12:50:42;;;;;;;54.53;24.02;;;;;;;;;;5060392;28;20045;-80
2022/11/28 12:53:11;;;;;;;49.38;21.60;;;;;;;;;;5051132;28;20041;-78
2022/11/28 12:55:46;;;;;;;39.38;19.33;;;;;;;;;;5038366;28;20103;-78
2022/11/28 12:58:12;;;;;;;44.70;20.77;;;;;;;;;;5050722;28;20041;-78
2022/11/28 13:00:59;;;;;;;47.15;21.17;;;;;;;;;;5043972;28;20526;-79
2022/11/28 13:03:34;;;;;;;48.83;22.98;;;;;;;;;;5036423;28;20052;-79
2022/11/28 13:06:17;;;;;;;45.33;20.50;;;;;;;;;;5045236;28;20045;-80
2022/11/28 13:08:49;;;;;;;42.22;20.17;;;;;;;;;;5042072;28;20045;-79
2022/11/28 13:11:39;;;;;;;46.65;21.17;;;;;;;;;;5055922;28;20052;-79
2022/11/28 13:14:11;;;;;;;50.65;21.70;;;;;;;;;;5059147;28;20051;-79
2022/11/28 13:16:44;;;;;;;58.28;24.48;;;;;;;;;;5061193;28;20056;-79
2022/11/28 13:19:10;;;;;;;61.95;27.02;;;;;;;;;;5061916;28;20056;-79
2022/11/28 13:21:36;;;;;;;47.83;23.25;;;;;;;;;;5057454;28;20052;-79
2022/11/28 13:24:05;;;;;;;44.90;22.35;;;;;;;;;;5060535;28;20104;-79
2022/11/28 13:26:37;;;;;;;42.78;20.38;;;;;;;;;;5048180;28;20060;-79
2022/11/28 13:29:03;;;;;;;48.88;23.58;;;;;;;;;;5040265;28;20053;-79
2022/11/28 13:31:56;;;;;;;40.92;21.40;;;;;;;;;;5051692;28;20037;-80
2022/11/28 13:34:25;;;;;;;42.35;20.75;;;;;;;;;;5012017;28;20518;-80
2022/11/28 13:37:11;;;;;;;41.53;21.48;;;;;;;;;;5050087;28;20647;-80
2022/11/28 13:39:37;;;;;;;47.80;23.55;;;;;;;;;;5040598;28;20064;-80
2022/11/28 13:42:18;;;;;;;49.15;20.58;;;;;;;;;;5050211;28;20045;-80
2022/11/28 13:44:47;;;;;;;52.25;22.98;;;;;;;;;;5059805;28;20043;-79
2022/11/28 13:47:14;;;;;;;50.95;21.02;;;;;;;;;;5060825;28;20041;-79
2022/11/28 13:49:41;;;;;;;57.72;22.98;;;;;;;;;;5060441;28;20045;-79
2022/11/28 13:52:30;;;;;;;54.40;20.70;;;;;;;;;;5051813;28;20093;-80
2022/11/28 13:54:56;;;;;;;54.83;23.30;;;;;;;;;;5037507;28;20431;-80
2022/11/28 13:57:25;;;;;;;65.80;24.73;;;;;;;;;;5054021;28;20430;-80
2022/11/28 13:59:56;;;;;;;54.72;22.13;;;;;;;;;;5062232;28;20411;-80
2022/11/28 14:02:28;;;;;;;50.78;20.55;;;;;;;;;;5053821;28;20053;-80
2022/11/28 14:04:54;;;;;;;48.60;20.58;;;;;;;;;;5060278;28;20429;-80
2022/11/28 14:07:23;;;;;;;48.85;19.95;;;;;;;;;;5056984;28;20086;-79
2022/11/28 14:09:49;;;;;;;46.50;20.35;;;;;;;;;;5060789;28;20127;-80
2022/11/28 14:12:22;;;;;;;55.10;20.13;;;;;;;;;;5060810;28;20049;-80
2022/11/28 14:14:51;;;;;;;54.45;21.67;;;;;;;;;;5047358;28;20038;-80
2022/11/28 14:17:53;;;;;;;50.63;21.20;;;;;;;;;;5041182;28;20137;-80
2022/11/28 14:20:27;;;;;;;51.42;21.10;;;;;;;;;;5019068;28;20517;-80
2022/11/28 14:22:59;;;;;;;56.75;22.33;;;;;;;;;;5017782;28;20050;-81
2022/11/28 14:25:31;;;;;;;53.20;21.80;;;;;;;;;;5001853;28;20070;-78
2022/11/28 14:27:59;;;;;;;51.58;20.85;;;;;;;;;;5000118;28;20050;-78
2022/11/28 14:30:25;;;;;;;60.20;21.52;;;;;;;;;;5016544;28;20038;-80
2022/11/28 14:32:55;;;;;;;66.78;24.00;;;;;;;;;;5017206;28;20049;-79
2022/11/28 14:35:41;;;;;;;65.43;21.58;;;;;;;;;;5016347;28;20042;-79